createdAt,value
2017-05-27T00:04:49.076Z,93.7
2017-05-27T00:15:03.181Z,94.6
2017-05-27T00:25:17.856Z,95.1
2017-05-27T00:35:33.182Z,96.3
2017-05-27T00:45:47.967Z,95.8
2017-05-27T00:56:01.838Z,96.9
2017-05-27T01:06:16.708Z,97.5
2017-05-27T01:16:30.713Z,99.7
2017-05-27T01:26:44.525Z,100
2017-05-27T01:36:59.663Z,100
2017-05-27T01:47:14.073Z,100
2017-05-27T01:57:29.296Z,100
2017-05-27T02:07:43.866Z,100
2017-05-27T02:17:59.300Z,100
2017-05-27T02:28:14.781Z,100
2017-05-27T02:38:29.582Z,100
2017-05-27T02:48:44.380Z,100
2017-05-27T02:58:58.465Z,100
2017-05-27T03:09:13.076Z,100
2017-05-27T03:19:27.887Z,100
2017-05-27T03:29:41.828Z,100
2017-05-27T03:39:55.734Z,100
2017-05-27T03:50:10.605Z,100
2017-05-27T04:00:24.523Z,100
2017-05-27T04:10:38.544Z,100
2017-05-27T04:20:52.330Z,100
2017-05-27T04:31:07.299Z,100
2017-05-27T04:41:21.826Z,100
2017-05-27T04:51:36.862Z,100
2017-05-27T05:01:52.410Z,100
2017-05-27T05:12:06.573Z,100
2017-05-27T05:22:21.718Z,100
2017-05-27T05:32:35.810Z,100
2017-05-27T05:42:49.650Z,100
2017-05-27T05:53:04.443Z,99.8
2017-05-27T06:03:18.654Z,98.4
2017-05-27T06:13:33.558Z,96.7
2017-05-27T06:23:48.826Z,91.5
2017-05-27T06:34:03.278Z,86.9
2017-05-27T06:44:18.007Z,84.7
2017-05-27T06:54:33.677Z,82.7
2017-05-27T07:04:48.598Z,81.2
2017-05-27T07:15:03.971Z,80.4
2017-05-27T07:25:19.252Z,78.3
2017-05-27T07:35:33.542Z,76.8
2017-05-27T07:45:49.098Z,76
2017-05-27T07:56:03.512Z,74.8
2017-05-27T08:06:18.719Z,73.2
2017-05-27T08:16:35.714Z,71.5
2017-05-27T08:26:48.290Z,71
2017-05-27T08:37:02.639Z,70.8
2017-05-27T08:47:17.338Z,70
2017-05-27T08:57:32.105Z,69.5
2017-05-27T09:07:46.238Z,68
2017-05-27T09:18:00.946Z,67.8
2017-05-27T09:28:15.068Z,67.9
2017-05-27T09:38:29.402Z,66.1
2017-05-27T09:48:45.377Z,64.4
2017-05-27T09:59:00.179Z,64
2017-05-27T10:09:15.065Z,63.3
2017-05-27T10:19:29.123Z,61.8
2017-05-27T10:29:43.646Z,60.6
2017-05-27T10:39:58.247Z,59.5
2017-05-27T10:50:13.999Z,59.4
2017-05-27T11:00:29.548Z,58.2
2017-05-27T11:10:44.070Z,58.2
2017-05-27T11:20:59.258Z,58.9
2017-05-27T11:31:13.419Z,57
2017-05-27T11:41:27.532Z,57.4
2017-05-27T11:51:41.955Z,55.4
2017-05-27T12:01:56.843Z,54.5
2017-05-27T12:12:11.718Z,54.3
2017-05-27T12:22:27.716Z,54.3
2017-05-27T12:32:42.105Z,53.4
2017-05-27T12:42:58.105Z,51.4
2017-05-27T12:53:13.224Z,50.9
2017-05-27T13:03:28.210Z,50.4
2017-05-27T13:13:44.193Z,50.4
2017-05-27T13:23:59.560Z,50.1
2017-05-27T13:34:15.353Z,49.1
2017-05-27T13:44:30.782Z,47.4
2017-05-27T13:54:46.433Z,48.4
2017-05-27T14:05:01.234Z,47.9
2017-05-27T14:15:16.422Z,47.5
2017-05-27T14:25:31.118Z,47.9
2017-05-27T14:35:45.911Z,47.3
2017-05-27T14:46:01.204Z,47
2017-05-27T14:56:17.078Z,47
2017-05-27T15:06:32.431Z,46.9
2017-05-27T15:16:48.356Z,45.9
2017-05-27T15:27:03.842Z,45.8
2017-05-27T15:37:18.564Z,46.3
2017-05-27T15:47:33.532Z,46.5
2017-05-27T15:57:47.981Z,46.5
2017-05-27T16:08:01.985Z,47.7
2017-05-27T16:18:16.801Z,47.8
2017-05-27T16:28:31.552Z,48.4
2017-05-27T16:38:47.113Z,49
2017-05-27T16:49:01.900Z,49.5
2017-05-27T16:59:17.638Z,49.4
2017-05-27T17:09:32.048Z,50.1
2017-05-27T17:19:46.317Z,50.7
2017-05-27T17:30:00.558Z,51.1
2017-05-27T17:40:15.915Z,52.2
2017-05-27T17:50:31.313Z,53.2
2017-05-27T18:00:47.138Z,56.3
2017-05-27T18:11:01.740Z,57.8
2017-05-27T18:21:15.975Z,60.9
2017-05-27T18:31:30.859Z,61.5
2017-05-27T18:41:44.971Z,63.3
2017-05-27T18:52:00.745Z,65.6
2017-05-27T19:02:16.305Z,67.4
2017-05-27T19:12:30.928Z,69.6
2017-05-27T19:22:44.784Z,70.6
2017-05-27T19:32:59.068Z,72.2
2017-05-27T19:43:13.882Z,73.4
2017-05-27T19:53:28.844Z,74.3
2017-05-27T20:03:43.500Z,75.5
2017-05-27T20:13:58.531Z,77.7
2017-05-27T20:24:13.055Z,78.2
2017-05-27T20:34:27.358Z,78.2
2017-05-27T20:44:42.541Z,77.4
2017-05-27T20:54:57.393Z,76.8
2017-05-27T21:05:11.992Z,75.1
2017-05-27T21:15:27.191Z,73.5
2017-05-27T21:25:42.139Z,72.8
2017-05-27T21:35:56.289Z,72
2017-05-27T21:46:11.091Z,72.2
2017-05-27T21:56:26.612Z,72
2017-05-27T22:06:42.263Z,72.4
2017-05-27T22:16:58.029Z,74.3
2017-05-27T22:27:13.457Z,75.5
2017-05-27T22:37:28.622Z,77.2
2017-05-27T22:47:43.306Z,78.4
2017-05-27T22:57:57.155Z,79.9
2017-05-27T23:08:11.402Z,82.5
2017-05-27T23:18:25.222Z,84.2
2017-05-27T23:28:39.869Z,84.5
2017-05-27T23:38:54.519Z,84.1
2017-05-27T23:49:08.675Z,84.5
2017-05-27T23:59:22.621Z,85.6
